Terminal Aerodrome Forecast
Issued by NWS

Current Version | Previous Version | Graphics & Text | Print | Product List | Glossary Off
Versions: 1 2 3 4 5 6 7 8 9 10 11 12 13 14 15 16 17 18 19 20 21 22

000
FTUS41 KPBZ 260500 RRA
TAFMGW
TAF
KMGW 260541Z 2606/2706 04005KT 1 1/2SM -RASN BR OVC005
      TEMPO 2606/2609 3/4SM RASN OVC001
     FM260900 03006KT 2SM -SN OVC007
     FM262200 01005KT 3SM -SHSN OVC010=

USA.gov is the U.S. government's official web portal to all federal, state and local government web resources and services.